Terminal Aerodrome Forecast
Issued by NWS

Home | Current Version | Previous Version | Text Only | Print | Product List | Glossary On
Versions: 1 2 3 4 5 6 7 8 9 10 11 12
000
FTUS46 KSEW 280500
TAFPAE
TAF
KPAE 280524Z 2806/2906 36009KT P6SM OVC070
     FM281300 VRB03KT P6SM OVC008
     FM281800 VRB03KT P6SM BKN012
     FM282000 VRB03KT P6SM BKN040=

USA.gov is the U.S. government's official web portal to all federal, state and local government web resources and services.